sensor_id;sensor_type;location;lat;lon;timestamp;pressure;altitude;pressure_sealevel;temperature;humidity
52651;BME280;38537;47.226;39.702;2023-05-20T00:01:13;100671.22;;;18.14;40.02
52651;BME280;38537;47.226;39.702;2023-05-20T00:03:40;100639.16;;;17.98;40.07
52651;BME280;38537;47.226;39.702;2023-05-20T00:06:08;100662.25;;;18.12;40.07
52651;BME280;38537;47.226;39.702;2023-05-20T00:08:35;100652.59;;;18.01;40.18
52651;BME280;38537;47.226;39.702;2023-05-20T00:11:04;100662.00;;;18.05;40.30
52651;BME280;38537;47.226;39.702;2023-05-20T00:13:32;100655.06;;;17.90;40.27
52651;BME280;38537;47.226;39.702;2023-05-20T00:16:02;100646.44;;;17.74;40.73
52651;BME280;38537;47.226;39.702;2023-05-20T00:18:29;100677.75;;;17.81;40.57
52651;BME280;38537;47.226;39.702;2023-05-20T00:20:58;100665.25;;;17.70;40.98
52651;BME280;38537;47.226;39.702;2023-05-20T00:23:26;100665.00;;;17.75;41.10
52651;BME280;38537;47.226;39.702;2023-05-20T00:25:53;100666.78;;;17.68;40.79
52651;BME280;38537;47.226;39.702;2023-05-20T00:28:21;100671.38;;;17.72;41.18
52651;BME280;38537;47.226;39.702;2023-05-20T00:30:50;100668.91;;;17.71;40.88
52651;BME280;38537;47.226;39.702;2023-05-20T00:33:18;100651.63;;;17.52;41.16
52651;BME280;38537;47.226;39.702;2023-05-20T00:35:45;100673.59;;;17.67;41.12
52651;BME280;38537;47.226;39.702;2023-05-20T00:38:13;100662.34;;;17.58;41.34
52651;BME280;38537;47.226;39.702;2023-05-20T00:40:41;100658.56;;;17.54;41.45
52651;BME280;38537;47.226;39.702;2023-05-20T00:43:08;100652.91;;;17.54;41.33
52651;BME280;38537;47.226;39.702;2023-05-20T00:45:36;100650.34;;;17.49;41.49
52651;BME280;38537;47.226;39.702;2023-05-20T00:48:05;100657.84;;;17.45;41.43
52651;BME280;38537;47.226;39.702;2023-05-20T00:50:33;100642.63;;;17.37;41.59
52651;BME280;38537;47.226;39.702;2023-05-20T00:53:00;100653.38;;;17.44;41.69
52651;BME280;38537;47.226;39.702;2023-05-20T00:55:28;100643.66;;;17.33;41.64
52651;BME280;38537;47.226;39.702;2023-05-20T00:57:56;100634.81;;;17.22;41.71
52651;BME280;38537;47.226;39.702;2023-05-20T01:00:23;100654.25;;;17.36;41.71
52651;BME280;38537;47.226;39.702;2023-05-20T01:02:51;100644.59;;;17.25;41.67
52651;BME280;38537;47.226;39.702;2023-05-20T01:05:19;100637.28;;;17.24;42.04
52651;BME280;38537;47.226;39.702;2023-05-20T01:07:46;100642.94;;;17.24;41.99
52651;BME280;38537;47.226;39.702;2023-05-20T01:10:13;100651.19;;;17.29;41.78
52651;BME280;38537;47.226;39.702;2023-05-20T01:12:43;100642.94;;;17.24;41.91
52651;BME280;38537;47.226;39.702;2023-05-20T01:15:14;100633.94;;;17.09;41.79
52651;BME280;38537;47.226;39.702;2023-05-20T01:17:46;100635.50;;;17.19;41.88
52651;BME280;38537;47.226;39.702;2023-05-20T01:20:18;100647.91;;;17.27;42.01
52651;BME280;38537;47.226;39.702;2023-05-20T01:22:53;100651.88;;;17.26;41.59
52651;BME280;38537;47.226;39.702;2023-05-20T01:25:22;100660.16;;;17.31;41.29
52651;BME280;38537;47.226;39.702;2023-05-20T01:27:52;100650.38;;;17.28;41.34
52651;BME280;38537;47.226;39.702;2023-05-20T01:30:25;100617.94;;;17.13;41.15
52651;BME280;38537;47.226;39.702;2023-05-20T01:33:01;100650.06;;;17.42;41.13
52651;BME280;38537;47.226;39.702;2023-05-20T01:35:31;100652.84;;;17.30;41.22
52651;BME280;38537;47.226;39.702;2023-05-20T01:38:00;100652.41;;;17.40;41.23
52651;BME280;38537;47.226;39.702;2023-05-20T01:40:29;100657.91;;;17.36;41.06
52651;BME280;38537;47.226;39.702;2023-05-20T01:42:57;100646.38;;;17.29;41.25
52651;BME280;38537;47.226;39.702;2023-05-20T01:45:26;100650.94;;;17.22;41.10
52651;BME280;38537;47.226;39.702;2023-05-20T01:47:53;100644.66;;;17.16;41.13
52651;BME280;38537;47.226;39.702;2023-05-20T01:50:21;100660.56;;;17.21;41.25
52651;BME280;38537;47.226;39.702;2023-05-20T01:52:48;100642.03;;;17.11;41.27
52651;BME280;38537;47.226;39.702;2023-05-20T01:55:16;100647.28;;;17.00;40.90
52651;BME280;38537;47.226;39.702;2023-05-20T01:57:43;100666.91;;;16.97;41.74
52651;BME280;38537;47.226;39.702;2023-05-20T02:00:11;100674.53;;;16.96;41.86
52651;BME280;38537;47.226;39.702;2023-05-20T02:02:43;100677.06;;;16.89;41.88
52651;BME280;38537;47.226;39.702;2023-05-20T02:05:12;100687.19;;;16.90;42.14
52651;BME280;38537;47.226;39.702;2023-05-20T02:07:41;100682.94;;;16.84;42.34
52651;BME280;38537;47.226;39.702;2023-05-20T02:10:09;100688.25;;;16.86;41.97
52651;BME280;38537;47.226;39.702;2023-05-20T02:12:37;100698.34;;;16.87;41.88
52651;BME280;38537;47.226;39.702;2023-05-20T02:15:06;100697.44;;;16.95;42.09
52651;BME280;38537;47.226;39.702;2023-05-20T02:17:35;100706.41;;;16.97;41.93
52651;BME280;38537;47.226;39.702;2023-05-20T02:20:23;100684.25;;;16.87;41.69
52651;BME280;38537;47.226;39.702;2023-05-20T02:22:50;100701.25;;;16.99;41.85
52651;BME280;38537;47.226;39.702;2023-05-20T02:25:18;100703.53;;;17.05;41.67
52651;BME280;38537;47.226;39.702;2023-05-20T02:27:46;100682.31;;;16.99;41.27
52651;BME280;38537;47.226;39.702;2023-05-20T02:30:14;100696.03;;;17.09;41.32
52651;BME280;38537;47.226;39.702;2023-05-20T02:32:41;100708.94;;;17.10;41.38
52651;BME280;38537;47.226;39.702;2023-05-20T02:35:09;100713.78;;;17.10;41.50
52651;BME280;38537;47.226;39.702;2023-05-20T02:37:36;100712.47;;;17.07;41.37
52651;BME280;38537;47.226;39.702;2023-05-20T02:40:06;100715.28;;;17.07;41.47
52651;BME280;38537;47.226;39.702;2023-05-20T02:42:37;100728.69;;;17.10;41.60
52651;BME280;38537;47.226;39.702;2023-05-20T02:45:06;100739.91;;;16.98;42.09
52651;BME280;38537;47.226;39.702;2023-05-20T02:47:34;100732.31;;;16.90;42.37
52651;BME280;38537;47.226;39.702;2023-05-20T02:50:03;100734.69;;;16.88;42.53
52651;BME280;38537;47.226;39.702;2023-05-20T02:52:31;100739.84;;;16.86;42.48
52651;BME280;38537;47.226;39.702;2023-05-20T02:54:58;100745.56;;;16.98;42.19
52651;BME280;38537;47.226;39.702;2023-05-20T02:57:26;100741.56;;;16.99;42.26
52651;BME280;38537;47.226;39.702;2023-05-20T02:59:54;100743.41;;;16.95;42.12
52651;BME280;38537;47.226;39.702;2023-05-20T03:02:22;100730.63;;;16.98;42.27
52651;BME280;38537;47.226;39.702;2023-05-20T03:04:51;100744.81;;;17.10;42.24
52651;BME280;38537;47.226;39.702;2023-05-20T03:07:21;100724.09;;;17.06;41.93
52651;BME280;38537;47.226;39.702;2023-05-20T03:09:48;100732.81;;;17.13;41.71
52651;BME280;38537;47.226;39.702;2023-05-20T03:12:17;100737.72;;;17.25;41.90
52651;BME280;38537;47.226;39.702;2023-05-20T03:14:45;100748.94;;;17.33;41.17
52651;BME280;38537;47.226;39.702;2023-05-20T03:17:13;100737.31;;;17.35;41.64
52651;BME280;38537;47.226;39.702;2023-05-20T03:19:43;100725.63;;;17.24;41.42
52651;BME280;38537;47.226;39.702;2023-05-20T03:22:10;100738.97;;;17.36;41.30
52651;BME280;38537;47.226;39.702;2023-05-20T03:24:38;100728.50;;;17.36;41.40
52651;BME280;38537;47.226;39.702;2023-05-20T03:27:07;100723.31;;;17.38;41.19
52651;BME280;38537;47.226;39.702;2023-05-20T03:29:34;100745.16;;;17.50;40.99
52651;BME280;38537;47.226;39.702;2023-05-20T03:32:02;100754.69;;;17.66;40.90
52651;BME280;38537;47.226;39.702;2023-05-20T03:34:30;100740.56;;;17.66;40.97
52651;BME280;38537;47.226;39.702;2023-05-20T03:36:59;100737.72;;;17.66;40.40
52651;BME280;38537;47.226;39.702;2023-05-20T03:39:28;100747.41;;;17.77;40.66
52651;BME280;38537;47.226;39.702;2023-05-20T03:41:55;100759.25;;;17.92;40.36
52651;BME280;38537;47.226;39.702;2023-05-20T03:44:22;100762.31;;;17.99;40.58
52651;BME280;38537;47.226;39.702;2023-05-20T03:46:49;100750.31;;;18.02;40.21
52651;BME280;38537;47.226;39.702;2023-05-20T03:49:17;100744.09;;;18.08;39.77
52651;BME280;38537;47.226;39.702;2023-05-20T03:51:45;100743.28;;;18.20;39.78
52651;BME280;38537;47.226;39.702;2023-05-20T03:54:13;100728.31;;;18.20;39.40
52651;BME280;38537;47.226;39.702;2023-05-20T03:56:48;100756.28;;;18.45;38.84
52651;BME280;38537;47.226;39.702;2023-05-20T03:59:19;100745.81;;;18.58;38.75
52651;BME280;38537;47.226;39.702;2023-05-20T04:01:48;100744.53;;;18.68;38.09
52651;BME280;38537;47.226;39.702;2023-05-20T04:04:16;100730.75;;;18.78;37.92
52651;BME280;38537;47.226;39.702;2023-05-20T04:06:43;100736.28;;;18.87;37.50
52651;BME280;38537;47.226;39.702;2023-05-20T04:09:11;100732.16;;;18.97;37.69
52651;BME280;38537;47.226;39.702;2023-05-20T04:11:41;100744.63;;;19.20;37.36
52651;BME280;38537;47.226;39.702;2023-05-20T04:14:08;100746.03;;;19.26;36.74
52651;BME280;38537;47.226;39.702;2023-05-20T04:16:37;100748.34;;;19.36;36.85
52651;BME280;38537;47.226;39.702;2023-05-20T04:19:05;100734.75;;;19.42;36.46
52651;BME280;38537;47.226;39.702;2023-05-20T04:21:33;100733.56;;;19.43;36.58
52651;BME280;38537;47.226;39.702;2023-05-20T04:24:01;100746.28;;;19.61;36.56
52651;BME280;38537;47.226;39.702;2023-05-20T04:26:28;100742.03;;;19.67;36.28
52651;BME280;38537;47.226;39.702;2023-05-20T04:28:56;100734.06;;;19.73;36.25
52651;BME280;38537;47.226;39.702;2023-05-20T04:31:26;100736.75;;;19.81;35.59
52651;BME280;38537;47.226;39.702;2023-05-20T04:33:53;100751.31;;;19.96;35.60
52651;BME280;38537;47.226;39.702;2023-05-20T04:36:22;100749.03;;;20.01;34.96
52651;BME280;38537;47.226;39.702;2023-05-20T04:38:55;100725.25;;;19.90;34.77
52651;BME280;38537;47.226;39.702;2023-05-20T04:41:23;100744.75;;;20.07;34.38
52651;BME280;38537;47.226;39.702;2023-05-20T04:43:51;100751.06;;;20.16;34.64
52651;BME280;38537;47.226;39.702;2023-05-20T04:46:25;100741.03;;;20.19;34.29
52651;BME280;38537;47.226;39.702;2023-05-20T04:48:53;100734.25;;;20.24;34.48
52651;BME280;38537;47.226;39.702;2023-05-20T04:51:28;100756.53;;;20.37;34.12
52651;BME280;38537;47.226;39.702;2023-05-20T04:53:56;100752.13;;;20.40;34.09
52651;BME280;38537;47.226;39.702;2023-05-20T04:56:28;100737.81;;;20.36;34.02
52651;BME280;38537;47.226;39.702;2023-05-20T04:58:55;100741.72;;;20.44;33.93
52651;BME280;38537;47.226;39.702;2023-05-20T05:01:23;100726.88;;;20.35;33.68
52651;BME280;38537;47.226;39.702;2023-05-20T05:03:51;100741.34;;;20.45;33.70
52651;BME280;38537;47.226;39.702;2023-05-20T05:06:20;100751.03;;;20.60;33.93
52651;BME280;38537;47.226;39.702;2023-05-20T05:08:47;100738.69;;;20.52;33.47
52651;BME280;38537;47.226;39.702;2023-05-20T05:11:15;100740.06;;;20.59;32.85
52651;BME280;38537;47.226;39.702;2023-05-20T05:13:42;100740.16;;;20.62;33.12
52651;BME280;38537;47.226;39.702;2023-05-20T05:16:12;100736.22;;;20.67;32.56
52651;BME280;38537;47.226;39.702;2023-05-20T05:18:39;100747.75;;;20.74;32.26
52651;BME280;38537;47.226;39.702;2023-05-20T05:21:07;100770.81;;;20.88;31.92
52651;BME280;38537;47.226;39.702;2023-05-20T05:23:35;100770.06;;;20.91;31.70
52651;BME280;38537;47.226;39.702;2023-05-20T05:26:03;100739.84;;;20.83;31.60
52651;BME280;38537;47.226;39.702;2023-05-20T05:28:31;100768.38;;;21.06;31.58
52651;BME280;38537;47.226;39.702;2023-05-20T05:30:58;100755.75;;;21.03;32.20
52651;BME280;38537;47.226;39.702;2023-05-20T05:33:26;100751.81;;;21.08;31.83
52651;BME280;38537;47.226;39.702;2023-05-20T05:35:54;100761.22;;;21.28;31.92
52651;BME280;38537;47.226;39.702;2023-05-20T05:38:26;100756.72;;;21.27;30.79
52651;BME280;38537;47.226;39.702;2023-05-20T05:40:56;100771.56;;;21.36;31.08
52651;BME280;38537;47.226;39.702;2023-05-20T05:43:29;100749.56;;;21.33;32.14
52651;BME280;38537;47.226;39.702;2023-05-20T05:45:58;100763.19;;;21.43;31.47
52651;BME280;38537;47.226;39.702;2023-05-20T05:48:25;100753.03;;;21.42;30.90
52651;BME280;38537;47.226;39.702;2023-05-20T05:50:53;100770.84;;;21.58;30.74
52651;BME280;38537;47.226;39.702;2023-05-20T05:53:20;100772.41;;;21.55;30.53
52651;BME280;38537;47.226;39.702;2023-05-20T05:55:48;100765.97;;;21.59;30.34
52651;BME280;38537;47.226;39.702;2023-05-20T05:58:17;100754.16;;;21.57;30.45
52651;BME280;38537;47.226;39.702;2023-05-20T06:00:46;100776.53;;;21.77;30.52
52651;BME280;38537;47.226;39.702;2023-05-20T06:03:13;100765.22;;;21.81;31.07
52651;BME280;38537;47.226;39.702;2023-05-20T06:05:44;100764.09;;;21.85;30.75
52651;BME280;38537;47.226;39.702;2023-05-20T06:08:13;100755.25;;;21.90;30.29
52651;BME280;38537;47.226;39.702;2023-05-20T06:10:40;100770.06;;;22.00;30.50
52651;BME280;38537;47.226;39.702;2023-05-20T06:13:08;100766.06;;;22.01;29.97
52651;BME280;38537;47.226;39.702;2023-05-20T06:15:35;100744.03;;;21.98;29.72
52651;BME280;38537;47.226;39.702;2023-05-20T06:18:03;100735.06;;;21.96;30.29
52651;BME280;38537;47.226;39.702;2023-05-20T06:20:31;100761.84;;;22.14;29.98
52651;BME280;38537;47.226;39.702;2023-05-20T06:22:59;100748.13;;;22.19;29.82
52651;BME280;38537;47.226;39.702;2023-05-20T06:25:37;100773.81;;;22.23;29.63
52651;BME280;38537;47.226;39.702;2023-05-20T06:28:05;100760.53;;;22.31;29.48
52651;BME280;38537;47.226;39.702;2023-05-20T06:30:32;100759.41;;;22.35;29.24
52651;BME280;38537;47.226;39.702;2023-05-20T06:33:00;100752.56;;;22.40;28.99
52651;BME280;38537;47.226;39.702;2023-05-20T06:35:27;100745.09;;;22.32;29.57
52651;BME280;38537;47.226;39.702;2023-05-20T06:37:55;100748.09;;;22.39;29.65
52651;BME280;38537;47.226;39.702;2023-05-20T06:40:26;100779.25;;;22.54;29.15
52651;BME280;38537;47.226;39.702;2023-05-20T06:42:54;100763.44;;;22.57;29.19
52651;BME280;38537;47.226;39.702;2023-05-20T06:45:41;100762.69;;;22.60;29.12
52651;BME280;38537;47.226;39.702;2023-05-20T06:48:26;100770.63;;;22.74;29.32
52651;BME280;38537;47.226;39.702;2023-05-20T06:50:54;100764.94;;;22.74;28.92
52651;BME280;38537;47.226;39.702;2023-05-20T06:53:22;100776.06;;;22.79;27.73
52651;BME280;38537;47.226;39.702;2023-05-20T06:55:52;100764.16;;;22.73;27.91
52651;BME280;38537;47.226;39.702;2023-05-20T06:58:22;100768.63;;;22.74;28.26
52651;BME280;38537;47.226;39.702;2023-05-20T07:00:49;100775.34;;;22.85;28.43
52651;BME280;38537;47.226;39.702;2023-05-20T07:03:17;100740.13;;;22.74;29.12
52651;BME280;38537;47.226;39.702;2023-05-20T07:05:45;100773.88;;;22.95;29.12
52651;BME280;38537;47.226;39.702;2023-05-20T07:08:13;100752.97;;;22.84;28.06
52651;BME280;38537;47.226;39.702;2023-05-20T07:10:40;100761.28;;;22.96;27.55
52651;BME280;38537;47.226;39.702;2023-05-20T07:13:07;100768.69;;;23.01;27.43
52651;BME280;38537;47.226;39.702;2023-05-20T07:15:35;100749.03;;;22.92;28.10
52651;BME280;38537;47.226;39.702;2023-05-20T07:18:04;100754.13;;;23.06;28.10
52651;BME280;38537;47.226;39.702;2023-05-20T07:20:32;100758.16;;;23.05;27.85
52651;BME280;38537;47.226;39.702;2023-05-20T07:23:04;100754.06;;;23.02;27.20
52651;BME280;38537;47.226;39.702;2023-05-20T07:25:41;100743.53;;;23.06;27.57
52651;BME280;38537;47.226;39.702;2023-05-20T07:28:09;100750.19;;;23.14;27.69
52651;BME280;38537;47.226;39.702;2023-05-20T07:30:36;100773.19;;;23.28;27.85
52651;BME280;38537;47.226;39.702;2023-05-20T07:33:17;100752.72;;;23.22;28.19
52651;BME280;38537;47.226;39.702;2023-05-20T07:35:46;100769.94;;;23.30;28.51
52651;BME280;38537;47.226;39.702;2023-05-20T07:38:13;100764.81;;;23.42;28.73
52651;BME280;38537;47.226;39.702;2023-05-20T07:40:43;100773.00;;;23.44;29.01
52651;BME280;38537;47.226;39.702;2023-05-20T07:43:11;100743.16;;;23.34;28.75
52651;BME280;38537;47.226;39.702;2023-05-20T07:45:39;100777.16;;;23.50;28.72
52651;BME280;38537;47.226;39.702;2023-05-20T07:48:06;100760.38;;;23.45;28.91
52651;BME280;38537;47.226;39.702;2023-05-20T07:50:36;100751.75;;;23.38;28.74
52651;BME280;38537;47.226;39.702;2023-05-20T07:53:05;100763.38;;;23.52;28.76
52651;BME280;38537;47.226;39.702;2023-05-20T07:55:34;100765.09;;;23.60;28.81
52651;BME280;38537;47.226;39.702;2023-05-20T07:58:04;100758.50;;;23.52;28.66
52651;BME280;38537;47.226;39.702;2023-05-20T08:00:33;100771.34;;;23.43;28.87
52651;BME280;38537;47.226;39.702;2023-05-20T08:03:03;100757.03;;;23.39;29.03
52651;BME280;38537;47.226;39.702;2023-05-20T08:05:44;100747.38;;;23.47;29.49
52651;BME280;38537;47.226;39.702;2023-05-20T08:08:11;100745.06;;;23.53;29.73
52651;BME280;38537;47.226;39.702;2023-05-20T08:10:50;100734.53;;;23.61;29.85
52651;BME280;38537;47.226;39.702;2023-05-20T08:13:21;100739.88;;;23.62;29.17
52651;BME280;38537;47.226;39.702;2023-05-20T08:15:48;100753.78;;;23.67;28.94
52651;BME280;38537;47.226;39.702;2023-05-20T08:18:16;100746.78;;;23.61;28.68
52651;BME280;38537;47.226;39.702;2023-05-20T08:20:46;100754.94;;;23.63;28.81
52651;BME280;38537;47.226;39.702;2023-05-20T08:23:14;100744.72;;;23.58;29.46
52651;BME280;38537;47.226;39.702;2023-05-20T08:25:41;100748.94;;;23.71;29.27
52651;BME280;38537;47.226;39.702;2023-05-20T08:28:10;100762.44;;;23.74;28.52
52651;BME280;38537;47.226;39.702;2023-05-20T08:30:38;100752.78;;;23.86;28.73
52651;BME280;38537;47.226;39.702;2023-05-20T08:33:06;100765.88;;;23.90;28.41
52651;BME280;38537;47.226;39.702;2023-05-20T08:35:34;100749.94;;;23.86;28.19
52651;BME280;38537;47.226;39.702;2023-05-20T08:38:02;100760.66;;;23.96;28.22
52651;BME280;38537;47.226;39.702;2023-05-20T08:40:30;100750.13;;;24.00;28.78
52651;BME280;38537;47.226;39.702;2023-05-20T08:42:59;100738.19;;;23.91;27.98
52651;BME280;38537;47.226;39.702;2023-05-20T08:45:31;100749.88;;;24.16;27.99
52651;BME280;38537;47.226;39.702;2023-05-20T08:48:05;100758.56;;;24.26;27.44
52651;BME280;38537;47.226;39.702;2023-05-20T08:50:33;100763.53;;;24.33;26.84
52651;BME280;38537;47.226;39.702;2023-05-20T08:53:01;100755.72;;;24.26;27.14
52651;BME280;38537;47.226;39.702;2023-05-20T08:55:42;100757.97;;;24.44;27.76
52651;BME280;38537;47.226;39.702;2023-05-20T08:58:14;100754.72;;;24.45;27.14
52651;BME280;38537;47.226;39.702;2023-05-20T09:00:42;100760.13;;;24.57;27.58
52651;BME280;38537;47.226;39.702;2023-05-20T09:03:09;100730.78;;;24.60;27.63
52651;BME280;38537;47.226;39.702;2023-05-20T09:05:37;100716.03;;;24.55;27.05
52651;BME280;38537;47.226;39.702;2023-05-20T09:08:11;100728.81;;;24.68;26.16
52651;BME280;38537;47.226;39.702;2023-05-20T09:10:39;100723.91;;;24.72;27.15
52651;BME280;38537;47.226;39.702;2023-05-20T09:13:08;100738.22;;;24.76;26.46
52651;BME280;38537;47.226;39.702;2023-05-20T09:15:37;100730.13;;;24.81;26.54
52651;BME280;38537;47.226;39.702;2023-05-20T09:18:06;100710.94;;;24.82;26.37
52651;BME280;38537;47.226;39.702;2023-05-20T09:20:35;100713.84;;;24.85;26.45
52651;BME280;38537;47.226;39.702;2023-05-20T09:23:09;100721.56;;;24.81;26.57
52651;BME280;38537;47.226;39.702;2023-05-20T09:25:37;100701.84;;;24.69;26.32
52651;BME280;38537;47.226;39.702;2023-05-20T09:28:07;100712.94;;;24.78;26.45
52651;BME280;38537;47.226;39.702;2023-05-20T09:30:35;100717.88;;;24.81;26.66
52651;BME280;38537;47.226;39.702;2023-05-20T09:33:03;100716.25;;;24.83;26.80
52651;BME280;38537;47.226;39.702;2023-05-20T09:35:34;100713.81;;;24.82;25.51
52651;BME280;38537;47.226;39.702;2023-05-20T09:38:05;100701.50;;;24.74;26.26
52651;BME280;38537;47.226;39.702;2023-05-20T09:40:34;100702.22;;;24.60;26.60
52651;BME280;38537;47.226;39.702;2023-05-20T09:43:06;100711.56;;;24.57;26.39
52651;BME280;38537;47.226;39.702;2023-05-20T09:45:34;100706.28;;;24.59;26.92
52651;BME280;38537;47.226;39.702;2023-05-20T09:48:02;100711.19;;;24.59;27.07
52651;BME280;38537;47.226;39.702;2023-05-20T09:50:32;100696.47;;;24.57;27.29
52651;BME280;38537;47.226;39.702;2023-05-20T09:53:03;100711.88;;;24.49;27.39
52651;BME280;38537;47.226;39.702;2023-05-20T09:55:31;100705.75;;;24.47;27.89
52651;BME280;38537;47.226;39.702;2023-05-20T09:58:01;100714.75;;;24.45;28.10
52651;BME280;38537;47.226;39.702;2023-05-20T10:00:29;100671.06;;;24.41;27.73
52651;BME280;38537;47.226;39.702;2023-05-20T10:02:58;100687.88;;;24.53;28.17
52651;BME280;38537;47.226;39.702;2023-05-20T10:05:38;100703.53;;;24.74;28.26
52651;BME280;38537;47.226;39.702;2023-05-20T10:11:03;100707.31;;;24.85;28.74
52651;BME280;38537;47.226;39.702;2023-05-20T10:22:07;100703.34;;;25.00;28.84
52651;BME280;38537;47.226;39.702;2023-05-20T10:24:38;100717.22;;;24.98;28.13
52651;BME280;38537;47.226;39.702;2023-05-20T10:27:13;100703.34;;;25.00;28.55
52651;BME280;38537;47.226;39.702;2023-05-20T10:29:49;100692.63;;;24.90;27.28
52651;BME280;38537;47.226;39.702;2023-05-20T10:32:30;100693.53;;;24.98;27.42
52651;BME280;38537;47.226;39.702;2023-05-20T10:35:08;100706.63;;;25.02;27.25
52651;BME280;38537;47.226;39.702;2023-05-20T10:37:41;100695.59;;;25.01;27.28
52651;BME280;38537;47.226;39.702;2023-05-20T10:40:12;100709.88;;;25.01;26.85
52651;BME280;38537;47.226;39.702;2023-05-20T10:42:40;100687.41;;;24.99;27.25
52651;BME280;38537;47.226;39.702;2023-05-20T10:45:09;100717.25;;;25.05;26.77
52651;BME280;38537;47.226;39.702;2023-05-20T10:47:41;100720.97;;;25.13;26.60
52651;BME280;38537;47.226;39.702;2023-05-20T10:50:40;100712.81;;;25.15;27.10
52651;BME280;38537;47.226;39.702;2023-05-20T10:53:13;100724.69;;;25.17;26.60
52651;BME280;38537;47.226;39.702;2023-05-20T10:55:58;100704.19;;;25.04;26.77
52651;BME280;38537;47.226;39.702;2023-05-20T10:58:35;100699.31;;;25.08;26.97
52651;BME280;38537;47.226;39.702;2023-05-20T11:01:03;100689.16;;;25.18;27.15
52651;BME280;38537;47.226;39.702;2023-05-20T11:03:32;100701.09;;;25.31;26.88
52651;BME280;38537;47.226;39.702;2023-05-20T11:06:10;100702.34;;;25.33;26.39
52651;BME280;38537;47.226;39.702;2023-05-20T11:08:37;100694.84;;;25.14;26.61
52651;BME280;38537;47.226;39.702;2023-05-20T11:11:05;100702.28;;;25.26;26.79
52651;BME280;38537;47.226;39.702;2023-05-20T11:13:33;100689.16;;;25.18;26.51
52651;BME280;38537;47.226;39.702;2023-05-20T11:16:02;100679.31;;;25.08;26.64
52651;BME280;38537;47.226;39.702;2023-05-20T11:18:30;100698.22;;;25.34;26.68
52651;BME280;38537;47.226;39.702;2023-05-20T11:20:58;100686.38;;;25.36;27.23
52651;BME280;38537;47.226;39.702;2023-05-20T11:23:28;100696.25;;;25.45;26.92
52651;BME280;38537;47.226;39.702;2023-05-20T11:25:56;100681.53;;;25.43;27.43
52651;BME280;38537;47.226;39.702;2023-05-20T11:28:23;100696.28;;;25.56;27.13
52651;BME280;38537;47.226;39.702;2023-05-20T11:30:52;100675.06;;;25.60;27.27
52651;BME280;38537;47.226;39.702;2023-05-20T11:33:19;100662.88;;;25.71;27.47
52651;BME280;38537;47.226;39.702;2023-05-20T11:35:51;100682.50;;;25.83;27.01
52651;BME280;38537;47.226;39.702;2023-05-20T11:38:20;100680.91;;;25.92;26.75
52651;BME280;38537;47.226;39.702;2023-05-20T11:40:53;100684.97;;;25.84;26.49
52651;BME280;38537;47.226;39.702;2023-05-20T11:43:22;100686.19;;;25.76;26.46
52651;BME280;38537;47.226;39.702;2023-05-20T11:45:54;100677.16;;;25.67;26.56
52651;BME280;38537;47.226;39.702;2023-05-20T11:48:23;100666.88;;;25.52;26.35
52651;BME280;38537;47.226;39.702;2023-05-20T11:50:52;100684.38;;;25.43;26.71
52651;BME280;38537;47.226;39.702;2023-05-20T11:53:21;100666.78;;;25.31;27.04
52651;BME280;38537;47.226;39.702;2023-05-20T11:55:52;100659.44;;;25.33;26.96
52651;BME280;38537;47.226;39.702;2023-05-20T11:58:21;100650.03;;;25.29;27.10
52651;BME280;38537;47.226;39.702;2023-05-20T12:00:49;100642.66;;;25.24;27.13
52651;BME280;38537;47.226;39.702;2023-05-20T12:03:28;100652.03;;;25.25;27.26
52651;BME280;38537;47.226;39.702;2023-05-20T12:05:55;100642.28;;;25.33;27.50
52651;BME280;38537;47.226;39.702;2023-05-20T12:08:23;100625.16;;;25.44;27.75
52651;BME280;38537;47.226;39.702;2023-05-20T12:10:51;100628.84;;;25.48;27.61
52651;BME280;38537;47.226;39.702;2023-05-20T12:13:18;100631.66;;;25.37;27.60
52651;BME280;38537;47.226;39.702;2023-05-20T12:15:45;100628.41;;;25.32;28.06
52651;BME280;38537;47.226;39.702;2023-05-20T12:18:13;100646.78;;;25.41;28.03
52651;BME280;38537;47.226;39.702;2023-05-20T12:20:41;100639.84;;;25.42;27.90
52651;BME280;38537;47.226;39.702;2023-05-20T12:23:08;100622.72;;;25.46;27.92
52651;BME280;38537;47.226;39.702;2023-05-20T12:25:36;100617.00;;;25.56;28.26
52651;BME280;38537;47.226;39.702;2023-05-20T12:28:03;100600.75;;;25.71;28.18
52651;BME280;38537;47.226;39.702;2023-05-20T12:30:30;100633.47;;;25.74;27.45
52651;BME280;38537;47.226;39.702;2023-05-20T12:32:58;100632.56;;;25.59;26.83
52651;BME280;38537;47.226;39.702;2023-05-20T12:35:40;100635.06;;;25.68;26.79
52651;BME280;38537;47.226;39.702;2023-05-20T12:38:08;100643.19;;;25.62;26.87
52651;BME280;38537;47.226;39.702;2023-05-20T12:40:36;100633.00;;;25.65;27.55
52651;BME280;38537;47.226;39.702;2023-05-20T12:43:05;100610.47;;;25.56;27.40
52651;BME280;38537;47.226;39.702;2023-05-20T12:45:33;100612.59;;;25.70;27.37
52651;BME280;38537;47.226;39.702;2023-05-20T12:48:03;100622.41;;;25.72;26.50
52651;BME280;38537;47.226;39.702;2023-05-20T12:50:32;100629.75;;;25.70;27.00
52651;BME280;38537;47.226;39.702;2023-05-20T12:53:00;100606.81;;;25.52;27.04
52651;BME280;38537;47.226;39.702;2023-05-20T12:55:28;100621.91;;;25.56;27.16
52651;BME280;38537;47.226;39.702;2023-05-20T12:57:55;100611.66;;;25.41;27.38
52651;BME280;38537;47.226;39.702;2023-05-20T13:00:22;100601.91;;;25.52;27.79
52651;BME280;38537;47.226;39.702;2023-05-20T13:02:49;100618.72;;;25.65;27.73